sensor_id;sensor_type;location;lat;lon;timestamp;P1;durP1;ratioP1;P2;durP2;ratioP2
57321;SDS011;43159;51.006;18.224;2023-06-19T00:04:25;14.10;;;7.80;;
57321;SDS011;43159;51.006;18.224;2023-06-19T00:14:09;15.40;;;9.10;;
57321;SDS011;43159;51.006;18.224;2023-06-19T00:23:54;14.30;;;8.10;;
57321;SDS011;43159;51.006;18.224;2023-06-19T00:33:42;17.50;;;10.10;;
57321;SDS011;43159;51.006;18.224;2023-06-19T00:43:29;18.20;;;5.80;;
57321;SDS011;43159;51.006;18.224;2023-06-19T00:53:12;15.00;;;7.80;;
57321;SDS011;43159;51.006;18.224;2023-06-19T01:02:54;15.60;;;7.70;;
57321;SDS011;43159;51.006;18.224;2023-06-19T01:13:06;18.20;;;9.60;;
57321;SDS011;43159;51.006;18.224;2023-06-19T01:22:54;27.50;;;7.90;;
57321;SDS011;43159;51.006;18.224;2023-06-19T01:32:48;16.20;;;8.20;;
57321;SDS011;43159;51.006;18.224;2023-06-19T01:42:39;16.20;;;6.90;;
57321;SDS011;43159;51.006;18.224;2023-06-19T01:52:22;13.50;;;5.40;;
57321;SDS011;43159;51.006;18.224;2023-06-19T02:02:06;28.20;;;7.70;;
57321;SDS011;43159;51.006;18.224;2023-06-19T02:11:49;15.00;;;7.40;;
57321;SDS011;43159;51.006;18.224;2023-06-19T02:21:35;10.30;;;5.20;;
57321;SDS011;43159;51.006;18.224;2023-06-19T02:31:21;10.30;;;5.60;;
57321;SDS011;43159;51.006;18.224;2023-06-19T02:41:03;13.70;;;6.40;;
57321;SDS011;43159;51.006;18.224;2023-06-19T02:58:07;16.80;;;5.50;;
57321;SDS011;43159;51.006;18.224;2023-06-19T03:07:52;25.30;;;9.10;;
57321;SDS011;43159;51.006;18.224;2023-06-19T03:17:34;17.80;;;8.10;;
57321;SDS011;43159;51.006;18.224;2023-06-19T03:27:17;14.70;;;7.80;;
57321;SDS011;43159;51.006;18.224;2023-06-19T03:36:59;21.20;;;8.40;;
57321;SDS011;43159;51.006;18.224;2023-06-19T03:46:42;18.80;;;6.10;;
57321;SDS011;43159;51.006;18.224;2023-06-19T03:56:25;16.00;;;10.10;;
57321;SDS011;43159;51.006;18.224;2023-06-19T04:06:07;21.00;;;8.90;;
57321;SDS011;43159;51.006;18.224;2023-06-19T04:15:51;16.40;;;9.00;;
57321;SDS011;43159;51.006;18.224;2023-06-19T04:25:34;18.70;;;10.10;;
57321;SDS011;43159;51.006;18.224;2023-06-19T04:35:22;14.60;;;8.90;;
57321;SDS011;43159;51.006;18.224;2023-06-19T04:45:06;14.00;;;8.50;;
57321;SDS011;43159;51.006;18.224;2023-06-19T04:54:51;16.20;;;9.50;;
57321;SDS011;43159;51.006;18.224;2023-06-19T05:04:35;14.40;;;8.80;;
57321;SDS011;43159;51.006;18.224;2023-06-19T05:14:17;16.70;;;8.10;;
57321;SDS011;43159;51.006;18.224;2023-06-19T05:24:00;10.00;;;5.40;;
57321;SDS011;43159;51.006;18.224;2023-06-19T05:33:44;13.10;;;7.80;;
57321;SDS011;43159;51.006;18.224;2023-06-19T05:43:27;12.70;;;7.40;;
57321;SDS011;43159;51.006;18.224;2023-06-19T05:53:10;13.90;;;7.90;;
57321;SDS011;43159;51.006;18.224;2023-06-19T06:02:52;12.80;;;6.70;;
57321;SDS011;43159;51.006;18.224;2023-06-19T06:19:54;12.40;;;6.30;;
57321;SDS011;43159;51.006;18.224;2023-06-19T06:29:38;10.70;;;7.00;;
57321;SDS011;43159;51.006;18.224;2023-06-19T06:46:40;10.20;;;5.00;;
57321;SDS011;43159;51.006;18.224;2023-06-19T06:56:22;12.30;;;4.70;;
57321;SDS011;43159;51.006;18.224;2023-06-19T07:06:04;10.00;;;5.20;;
57321;SDS011;43159;51.006;18.224;2023-06-19T07:15:47;8.90;;;4.70;;
57321;SDS011;43159;51.006;18.224;2023-06-19T07:25:29;9.00;;;4.40;;
57321;SDS011;43159;51.006;18.224;2023-06-19T07:35:11;9.10;;;3.50;;
57321;SDS011;43159;51.006;18.224;2023-06-19T07:44:54;9.60;;;3.50;;
57321;SDS011;43159;51.006;18.224;2023-06-19T07:54:47;10.90;;;3.70;;
57321;SDS011;43159;51.006;18.224;2023-06-19T08:04:37;9.00;;;3.90;;
57321;SDS011;43159;51.006;18.224;2023-06-19T08:14:19;7.90;;;2.90;;
57321;SDS011;43159;51.006;18.224;2023-06-19T08:24:01;6.10;;;2.60;;
57321;SDS011;43159;51.006;18.224;2023-06-19T08:33:47;6.70;;;2.80;;
57321;SDS011;43159;51.006;18.224;2023-06-19T08:43:32;8.40;;;3.90;;
57321;SDS011;43159;51.006;18.224;2023-06-19T08:53:17;8.60;;;3.00;;
57321;SDS011;43159;51.006;18.224;2023-06-19T09:03:01;9.10;;;3.60;;
57321;SDS011;43159;51.006;18.224;2023-06-19T09:12:58;12.30;;;3.90;;
57321;SDS011;43159;51.006;18.224;2023-06-19T09:23:00;8.20;;;3.60;;
57321;SDS011;43159;51.006;18.224;2023-06-19T09:32:44;8.50;;;3.40;;
57321;SDS011;43159;51.006;18.224;2023-06-19T09:42:38;6.30;;;2.90;;
57321;SDS011;43159;51.006;18.224;2023-06-19T09:52:30;12.40;;;3.90;;
57321;SDS011;43159;51.006;18.224;2023-06-19T10:02:24;10.70;;;4.20;;
57321;SDS011;43159;51.006;18.224;2023-06-19T10:12:38;13.10;;;3.10;;
57321;SDS011;43159;51.006;18.224;2023-06-19T10:22:32;8.60;;;3.60;;
57321;SDS011;43159;51.006;18.224;2023-06-19T10:32:19;8.00;;;2.60;;
57321;SDS011;43159;51.006;18.224;2023-06-19T10:42:07;8.60;;;3.70;;
57321;SDS011;43159;51.006;18.224;2023-06-19T10:51:52;7.80;;;3.00;;
57321;SDS011;43159;51.006;18.224;2023-06-19T11:01:53;14.10;;;3.30;;
57321;SDS011;43159;51.006;18.224;2023-06-19T11:11:39;9.20;;;3.70;;
57321;SDS011;43159;51.006;18.224;2023-06-19T11:21:31;8.20;;;2.80;;
57321;SDS011;43159;51.006;18.224;2023-06-19T11:31:17;7.70;;;3.60;;
57321;SDS011;43159;51.006;18.224;2023-06-19T11:41:25;9.50;;;4.30;;
57321;SDS011;43159;51.006;18.224;2023-06-19T11:51:51;9.40;;;4.10;;
57321;SDS011;43159;51.006;18.224;2023-06-19T12:01:35;7.80;;;3.60;;
57321;SDS011;43159;51.006;18.224;2023-06-19T12:39:34;8.10;;;4.40;;
57321;SDS011;43159;51.006;18.224;2023-06-19T12:49:16;7.50;;;3.50;;
57321;SDS011;43159;51.006;18.224;2023-06-19T12:58:57;7.10;;;3.30;;
57321;SDS011;43159;51.006;18.224;2023-06-19T13:08:39;8.40;;;3.40;;
57321;SDS011;43159;51.006;18.224;2023-06-19T13:18:21;7.30;;;3.00;;
57321;SDS011;43159;51.006;18.224;2023-06-19T13:28:04;16.40;;;8.40;;
57321;SDS011;43159;51.006;18.224;2023-06-19T13:37:46;10.80;;;2.90;;
57321;SDS011;43159;51.006;18.224;2023-06-19T13:47:29;6.20;;;2.60;;
57321;SDS011;43159;51.006;18.224;2023-06-19T13:57:12;7.40;;;3.10;;
57321;SDS011;43159;51.006;18.224;2023-06-19T14:06:54;2.20;;;1.50;;
57321;SDS011;43159;51.006;18.224;2023-06-19T14:16:37;6.80;;;2.20;;
57321;SDS011;43159;51.006;18.224;2023-06-19T14:26:20;7.90;;;2.70;;
57321;SDS011;43159;51.006;18.224;2023-06-19T14:36:03;8.40;;;3.30;;
57321;SDS011;43159;51.006;18.224;2023-06-19T14:45:52;9.90;;;3.30;;
57321;SDS011;43159;51.006;18.224;2023-06-19T14:55:35;9.10;;;2.90;;
57321;SDS011;43159;51.006;18.224;2023-06-19T15:05:17;9.30;;;3.80;;
57321;SDS011;43159;51.006;18.224;2023-06-19T15:15:00;8.20;;;2.80;;
57321;SDS011;43159;51.006;18.224;2023-06-19T15:24:42;8.90;;;3.60;;
57321;SDS011;43159;51.006;18.224;2023-06-19T15:34:24;7.70;;;3.00;;
57321;SDS011;43159;51.006;18.224;2023-06-19T15:44:09;7.60;;;3.20;;
57321;SDS011;43159;51.006;18.224;2023-06-19T15:53:52;8.50;;;3.70;;
57321;SDS011;43159;51.006;18.224;2023-06-19T16:03:35;8.50;;;3.50;;
57321;SDS011;43159;51.006;18.224;2023-06-19T16:13:17;7.70;;;2.90;;
57321;SDS011;43159;51.006;18.224;2023-06-19T16:22:59;9.60;;;4.20;;
57321;SDS011;43159;51.006;18.224;2023-06-19T16:32:42;8.90;;;3.80;;
57321;SDS011;43159;51.006;18.224;2023-06-19T16:42:24;9.00;;;3.70;;
57321;SDS011;43159;51.006;18.224;2023-06-19T16:52:07;8.50;;;3.10;;
57321;SDS011;43159;51.006;18.224;2023-06-19T17:01:50;11.10;;;4.50;;
57321;SDS011;43159;51.006;18.224;2023-06-19T17:11:33;8.30;;;3.00;;
57321;SDS011;43159;51.006;18.224;2023-06-19T17:21:15;9.80;;;3.90;;
57321;SDS011;43159;51.006;18.224;2023-06-19T17:30:58;9.40;;;4.20;;
57321;SDS011;43159;51.006;18.224;2023-06-19T17:40:40;9.40;;;3.80;;
57321;SDS011;43159;51.006;18.224;2023-06-19T17:50:22;12.40;;;4.80;;
57321;SDS011;43159;51.006;18.224;2023-06-19T18:00:04;9.30;;;4.20;;
57321;SDS011;43159;51.006;18.224;2023-06-19T18:09:49;13.80;;;4.90;;
57321;SDS011;43159;51.006;18.224;2023-06-19T18:19:37;8.10;;;3.10;;
57321;SDS011;43159;51.006;18.224;2023-06-19T18:29:20;8.20;;;4.40;;
57321;SDS011;43159;51.006;18.224;2023-06-19T18:39:03;11.90;;;4.70;;
57321;SDS011;43159;51.006;18.224;2023-06-19T18:48:45;12.60;;;5.50;;
57321;SDS011;43159;51.006;18.224;2023-06-19T18:58:28;33.60;;;6.10;;
57321;SDS011;43159;51.006;18.224;2023-06-19T19:08:13;18.30;;;6.20;;
57321;SDS011;43159;51.006;18.224;2023-06-19T19:17:58;19.30;;;7.30;;
57321;SDS011;43159;51.006;18.224;2023-06-19T19:27:40;19.50;;;7.20;;
57321;SDS011;43159;51.006;18.224;2023-06-19T19:37:23;19.40;;;6.60;;
57321;SDS011;43159;51.006;18.224;2023-06-19T19:47:15;17.40;;;8.90;;
57321;SDS011;43159;51.006;18.224;2023-06-19T19:56:58;18.50;;;7.60;;
57321;SDS011;43159;51.006;18.224;2023-06-19T20:06:40;24.90;;;9.80;;
57321;SDS011;43159;51.006;18.224;2023-06-19T20:16:24;20.00;;;9.60;;
57321;SDS011;43159;51.006;18.224;2023-06-19T20:26:06;24.00;;;10.30;;
57321;SDS011;43159;51.006;18.224;2023-06-19T20:35:48;14.20;;;8.00;;
57321;SDS011;43159;51.006;18.224;2023-06-19T20:45:33;14.20;;;7.90;;
57321;SDS011;43159;51.006;18.224;2023-06-19T20:55:15;16.50;;;9.40;;
57321;SDS011;43159;51.006;18.224;2023-06-19T21:05:04;10.10;;;4.90;;
57321;SDS011;43159;51.006;18.224;2023-06-19T21:14:48;13.00;;;7.00;;
57321;SDS011;43159;51.006;18.224;2023-06-19T21:24:30;11.10;;;5.70;;
57321;SDS011;43159;51.006;18.224;2023-06-19T21:34:12;13.40;;;7.00;;
57321;SDS011;43159;51.006;18.224;2023-06-19T21:43:54;16.60;;;9.70;;
57321;SDS011;43159;51.006;18.224;2023-06-19T21:53:36;19.50;;;7.80;;
57321;SDS011;43159;51.006;18.224;2023-06-19T22:03:19;18.80;;;8.70;;
57321;SDS011;43159;51.006;18.224;2023-06-19T22:10:38;17.70;;;10.80;;
57321;SDS011;43159;51.006;18.224;2023-06-19T22:20:26;14.70;;;7.40;;
57321;SDS011;43159;51.006;18.224;2023-06-19T22:30:12;13.50;;;7.60;;
57321;SDS011;43159;51.006;18.224;2023-06-19T22:39:55;14.20;;;9.20;;
57321;SDS011;43159;51.006;18.224;2023-06-19T22:49:38;14.30;;;7.80;;
57321;SDS011;43159;51.006;18.224;2023-06-19T22:59:23;13.70;;;6.50;;
57321;SDS011;43159;51.006;18.224;2023-06-19T23:09:10;14.20;;;8.50;;
57321;SDS011;43159;51.006;18.224;2023-06-19T23:18:54;15.70;;;9.80;;
57321;SDS011;43159;51.006;18.224;2023-06-19T23:28:52;15.20;;;9.00;;
57321;SDS011;43159;51.006;18.224;2023-06-19T23:38:39;16.50;;;9.40;;
57321;SDS011;43159;51.006;18.224;2023-06-19T23:48:21;17.30;;;9.00;;
57321;SDS011;43159;51.006;18.224;2023-06-19T23:58:03;16.10;;;9.10;;
